Time;durP1;ratioP1;P1;durP2;ratioP2;P2;SDS_P1;SDS_P2;PMS_P1;PMS_P2;Temp;Humidity;BMP_temperature;BMP_pressure;BME280_temperature;BME280_humidity;BME280_pressure;Samples;Min_cycle;Max_cycle;Signal;HPM_P1;HPM_P2
2023/06/23 00:00:44;;;;;;;27.40;16.88;;;;;;;16.31;100.00;101698.34;10421283;28;20041;-67
2023/06/23 00:05:45;;;;;;;29.25;15.23;;;;;;;16.31;100.00;101709.44;10419309;28;20125;-68
2023/06/23 00:10:48;;;;;;;23.70;13.23;;;;;;;16.30;100.00;101724.44;10421956;28;20093;-68
2023/06/23 00:15:49;;;;;;;22.50;13.98;;;;;;;16.18;100.00;101721.06;10419771;28;20041;-67
2023/06/23 00:20:54;;;;;;;21.83;12.50;;;;;;;16.20;100.00;101729.94;10419786;28;20037;-68
2023/06/23 00:25:55;;;;;;;21.50;12.07;;;;;;;16.13;100.00;101724.66;10419135;28;20041;-68
2023/06/23 00:30:55;;;;;;;23.33;13.30;;;;;;;16.10;100.00;101738.25;10434222;28;20105;-68
2023/06/23 00:35:56;;;;;;;21.75;12.30;;;;;;;16.05;100.00;101733.50;10419478;28;20038;-68
2023/06/23 00:40:56;;;;;;;28.95;17.77;;;;;;;16.03;100.00;101738.50;10421452;28;20042;-68
2023/06/23 00:46:06;;;;;;;40.33;23.83;;;;;;;15.92;100.00;101723.72;10418633;28;20052;-69
2023/06/23 00:51:07;;;;;;;37.53;26.52;;;;;;;16.00;100.00;101733.50;10434246;28;20037;-68
2023/06/23 00:56:08;;;;;;;43.13;27.23;;;;;;;16.06;100.00;101728.78;10416765;28;20037;-68
2023/06/23 01:01:10;;;;;;;31.60;20.35;;;;;;;15.94;100.00;101723.47;10414087;28;20037;-68
2023/06/23 01:06:27;;;;;;;30.88;21.33;;;;;;;15.90;100.00;101722.31;10416092;28;20049;-68
2023/06/23 01:11:41;;;;;;;29.25;16.38;;;;;;;15.81;100.00;101719.19;10417489;28;20515;-67
2023/06/23 01:16:44;;;;;;;22.42;12.25;;;;;;;15.86;100.00;101744.25;10418417;28;20044;-70
2023/06/23 01:21:54;;;;;;;30.35;23.15;;;;;;;15.88;100.00;101742.03;10374420;28;20572;-67
2023/06/23 01:26:57;;;;;;;26.77;17.10;;;;;;;15.80;100.00;101748.09;10375574;28;20038;-67
2023/06/23 01:32:08;;;;;;;16.77;11.13;;;;;;;15.74;100.00;101743.59;10392732;28;20054;-66
2023/06/23 01:37:10;;;;;;;18.35;11.18;;;;;;;15.78;100.00;101744.75;10375806;28;20030;-68
2023/06/23 01:42:13;;;;;;;16.92;9.55;;;;;;;15.81;100.00;101749.75;10391481;28;20652;-68
2023/06/23 01:47:18;;;;;;;18.40;10.07;;;;;;;15.71;100.00;101746.91;10377761;28;20301;-68
2023/06/23 01:52:20;;;;;;;15.45;9.15;;;;;;;15.82;100.00;101762.53;10419936;28;20041;-67
2023/06/23 01:57:20;;;;;;;17.73;13.90;;;;;;;15.82;100.00;101778.38;10417757;28;20040;-67
2023/06/23 02:02:21;;;;;;;30.02;18.85;;;;;;;15.80;100.00;101775.84;10415357;28;20076;-67
2023/06/23 02:07:21;;;;;;;25.10;19.23;;;;;;;15.80;100.00;101780.56;10415274;28;20540;-67
2023/06/23 02:12:22;;;;;;;22.25;14.35;;;;;;;15.70;100.00;101786.84;10398328;28;20104;-67
2023/06/23 02:17:22;;;;;;;16.50;10.93;;;;;;;15.82;100.00;101795.84;10413735;28;20127;-67
2023/06/23 02:22:24;;;;;;;13.63;9.25;;;;;;;15.79;100.00;101813.03;10414145;28;20034;-68
2023/06/23 02:27:24;;;;;;;12.38;7.97;;;;;;;15.80;100.00;101813.91;10415203;28;20038;-67
2023/06/23 02:32:25;;;;;;;12.38;8.20;;;;;;;15.77;100.00;101809.69;10415353;28;20060;-67
2023/06/23 02:37:25;;;;;;;16.38;7.85;;;;;;;15.84;100.00;101815.03;10430970;28;20045;-66
2023/06/23 02:42:31;;;;;;;13.70;7.53;;;;;;;15.82;100.00;101823.63;10414412;28;20068;-68
2023/06/23 02:47:35;;;;;;;19.50;9.25;;;;;;;15.82;100.00;101831.94;10429792;28;20083;-67
2023/06/23 02:52:36;;;;;;;15.68;8.55;;;;;;;15.79;100.00;101824.13;10430398;28;20048;-67
2023/06/23 02:57:36;;;;;;;16.25;8.43;;;;;;;15.83;100.00;101819.72;10433285;28;20394;-67
2023/06/23 03:02:37;;;;;;;19.52;8.95;;;;;;;15.88;100.00;101838.38;10440009;28;20033;-67
2023/06/23 03:07:38;;;;;;;20.38;7.60;;;;;;;15.89;100.00;101848.38;10422313;28;20037;-67
2023/06/23 03:12:39;;;;;;;14.52;7.78;;;;;;;15.89;100.00;101854.75;10437839;28;20040;-67
2023/06/23 03:17:39;;;;;;;11.38;7.60;;;;;;;15.97;100.00;101860.94;10384771;28;20057;-67
2023/06/23 03:22:43;;;;;;;15.50;6.65;;;;;;;15.91;100.00;101843.41;10380311;28;20038;-67
2023/06/23 03:27:44;;;;;;;14.35;7.18;;;;;;;15.89;100.00;101851.97;10397406;28;20056;-67
2023/06/23 03:32:47;;;;;;;13.50;6.80;;;;;;;16.00;100.00;101869.59;10397559;28;20402;-67
2023/06/23 03:37:54;;;;;;;10.10;6.68;;;;;;;16.02;100.00;101883.19;10379086;28;20406;-67
2023/06/23 03:43:02;;;;;;;12.07;6.72;;;;;;;16.02;100.00;101891.50;10379968;28;20034;-68
2023/06/23 03:48:04;;;;;;;16.17;6.25;;;;;;;16.01;100.00;101903.75;10402120;28;20106;-68
2023/06/23 03:53:04;;;;;;;13.77;6.35;;;;;;;15.92;100.00;101895.91;10403969;28;20029;-67
2023/06/23 03:58:06;;;;;;;12.70;6.68;;;;;;;15.89;100.00;101901.97;10421094;28;20053;-67
2023/06/23 04:03:07;;;;;;;13.38;7.28;;;;;;;16.06;100.00;101917.66;10420467;28;20517;-67
2023/06/23 04:08:08;;;;;;;12.23;7.00;;;;;;;16.04;100.00;101908.75;10402961;28;20068;-68
2023/06/23 04:13:08;;;;;;;15.55;7.93;;;;;;;16.03;100.00;101918.19;10418874;28;20038;-67
2023/06/23 04:18:09;;;;;;;12.68;7.57;;;;;;;15.99;100.00;101917.06;10401485;28;20037;-67
2023/06/23 04:23:09;;;;;;;13.80;7.43;;;;;;;15.98;100.00;101918.16;10403171;28;20072;-67
2023/06/23 04:28:10;;;;;;;13.50;8.18;;;;;;;16.04;100.00;101922.63;10419945;28;20494;-68
2023/06/23 04:33:10;;;;;;;15.32;8.43;;;;;;;16.17;100.00;101932.47;10417075;28;20085;-67
2023/06/23 04:38:14;;;;;;;18.90;8.73;;;;;;;16.30;100.00;101927.28;10435141;28;20033;-68
2023/06/23 04:43:18;;;;;;;17.70;8.82;;;;;;;16.40;100.00;101934.03;10392766;28;20054;-67
2023/06/23 04:48:21;;;;;;;14.13;8.02;;;;;;;16.31;100.00;101917.84;10392969;28;20520;-67
2023/06/23 04:53:23;;;;;;;12.25;7.85;;;;;;;16.45;100.00;101936.84;10394273;28;20034;-67
2023/06/23 04:58:23;;;;;;;18.05;8.90;;;;;;;16.49;100.00;101949.09;10394304;28;20034;-67
2023/06/23 05:03:24;;;;;;;18.98;9.05;;;;;;;16.52;100.00;101959.69;10404235;28;20041;-68
2023/06/23 05:08:25;;;;;;;18.27;8.38;;;;;;;16.43;100.00;101942.66;10416619;28;20072;-67
2023/06/23 05:13:27;;;;;;;17.95;9.50;;;;;;;16.53;100.00;101955.78;10433060;28;20037;-68
2023/06/23 05:18:27;;;;;;;16.38;8.30;;;;;;;16.52;100.00;101951.34;10432762;28;20041;-67
2023/06/23 05:23:28;;;;;;;20.50;9.48;;;;;;;16.67;100.00;101970.88;10416923;28;20061;-67
2023/06/23 05:28:31;;;;;;;17.58;8.60;;;;;;;16.80;100.00;101980.69;10416185;28;20042;-67
2023/06/23 05:33:33;;;;;;;15.88;7.88;;;;;;;16.96;100.00;101976.09;10431778;28;20036;-69
2023/06/23 05:38:33;;;;;;;20.00;7.55;;;;;;;17.17;100.00;101981.75;10415562;28;20096;-68
2023/06/23 05:43:34;;;;;;;21.40;9.18;;;;;;;17.29;100.00;101985.13;10415059;28;20033;-68
2023/06/23 05:48:38;;;;;;;20.88;9.05;;;;;;;17.40;100.00;101986.84;10415725;28;20043;-67
2023/06/23 05:53:38;;;;;;;13.38;7.32;;;;;;;17.42;100.00;101975.44;10418603;28;20131;-67
2023/06/23 05:58:41;;;;;;;16.90;7.25;;;;;;;17.49;100.00;101992.72;10432731;28;20030;-67
2023/06/23 06:04:06;;;;;;;11.60;6.88;;;;;;;17.44;100.00;101987.97;10416970;28;20030;-67
2023/06/23 06:09:07;;;;;;;14.65;8.30;;;;;;;17.44;100.00;101976.81;10414351;28;20045;-68
2023/06/23 06:14:08;;;;;;;15.73;7.28;;;;;;;17.45;100.00;101998.00;10430869;28;20559;-68
2023/06/23 06:19:08;;;;;;;18.45;8.23;;;;;;;17.43;100.00;102004.97;10398701;28;20080;-67
2023/06/23 06:24:10;;;;;;;15.93;7.65;;;;;;;17.41;100.00;102008.00;10432331;28;20559;-68
2023/06/23 06:29:10;;;;;;;19.92;9.25;;;;;;;17.32;100.00;102006.84;10431416;28;20038;-68
2023/06/23 06:34:11;;;;;;;14.23;8.43;;;;;;;17.22;100.00;102004.88;10398428;28;20037;-67
2023/06/23 06:39:12;;;;;;;19.10;9.10;;;;;;;17.20;100.00;102025.72;10397199;28;20033;-68
2023/06/23 06:44:12;;;;;;;16.27;9.35;;;;;;;17.05;100.00;102021.78;10416377;28;20099;-68
2023/06/23 06:49:13;;;;;;;16.90;9.13;;;;;;;17.04;100.00;102027.59;10414379;28;20057;-68
2023/06/23 06:54:14;;;;;;;13.85;8.20;;;;;;;17.31;100.00;102044.16;10398312;28;20457;-68
2023/06/23 06:59:15;;;;;;;17.20;8.13;;;;;;;17.63;100.00;102035.66;10394734;28;20103;-69
2023/06/23 07:04:15;;;;;;;13.77;7.32;;;;;;;18.06;100.00;102029.91;10394415;28;20060;-68
2023/06/23 07:09:16;;;;;;;10.68;6.45;;;;;;;18.28;100.00;102033.28;10393029;28;20038;-68
2023/06/23 07:14:16;;;;;;;11.23;5.97;;;;;;;18.65;100.00;102051.69;10397303;28;20060;-68
2023/06/23 07:19:17;;;;;;;11.85;6.20;;;;;;;18.95;100.00;102053.63;10409286;28;20044;-68
2023/06/23 07:24:17;;;;;;;13.43;6.30;;;;;;;19.11;100.00;102056.38;10394833;28;20041;-69
2023/06/23 07:29:18;;;;;;;15.27;6.70;;;;;;;19.20;100.00;102062.19;10392792;28;20029;-69
2023/06/23 07:34:18;;;;;;;7.20;4.55;;;;;;;19.41;100.00;102062.97;10394606;28;20033;-69
2023/06/23 07:39:19;;;;;;;8.15;5.18;;;;;;;19.46;100.00;102060.97;10394749;28;20037;-69
2023/06/23 07:44:21;;;;;;;8.48;3.78;;;;;;;19.54;100.00;102067.94;10398894;28;20029;-69
2023/06/23 07:49:21;;;;;;;5.88;4.22;;;;;;;19.65;100.00;102063.97;10402718;28;20454;-69
2023/06/23 07:54:21;;;;;;;4.80;3.67;;;;;;;19.70;100.00;102049.13;10400053;28;20038;-70
2023/06/23 07:59:22;;;;;;;8.13;4.20;;;;;;;19.92;100.00;102057.97;10401776;28;20494;-69
2023/06/23 08:04:22;;;;;;;6.40;3.88;;;;;;;20.02;100.00;102068.25;10412811;28;20118;-69
2023/06/23 08:09:24;;;;;;;6.57;4.35;;;;;;;20.06;100.00;102062.94;10391133;28;20061;-69
2023/06/23 08:14:24;;;;;;;4.63;3.50;;;;;;;20.04;100.00;102059.59;10395881;28;20050;-69
2023/06/23 08:19:25;;;;;;;6.00;3.25;;;;;;;20.11;100.00;102065.69;10414135;28;20045;-69
2023/06/23 08:24:25;;;;;;;4.10;3.05;;;;;;;20.49;100.00;102060.38;10420565;28;20049;-70
2023/06/23 08:29:25;;;;;;;6.45;3.38;;;;;;;20.83;100.00;102067.94;10412896;28;20041;-69
2023/06/23 08:34:26;;;;;;;6.93;4.07;;;;;;;21.25;100.00;102063.56;10400120;28;20099;-69
2023/06/23 08:39:26;;;;;;;5.30;3.30;;;;;;;21.63;100.00;102061.72;10397793;28;20038;-69
2023/06/23 08:44:27;;;;;;;7.40;3.75;;;;;;;21.86;100.00;102054.38;10389704;28;20033;-70
2023/06/23 08:49:27;;;;;;;7.57;3.92;;;;;;;22.09;100.00;102057.41;10413670;28;20428;-69
2023/06/23 08:54:28;;;;;;;6.65;3.63;;;;;;;22.28;100.00;102077.91;10419638;28;20505;-70
2023/06/23 08:59:28;;;;;;;7.65;3.60;;;;;;;22.44;100.00;102081.28;10411182;28;20060;-69
2023/06/23 09:04:29;;;;;;;6.53;3.28;;;;;;;22.71;100.00;102090.94;10457693;28;20049;-69
2023/06/23 09:09:29;;;;;;;4.28;3.00;;;;;;;22.92;100.00;102088.59;10459214;28;20033;-70
2023/06/23 09:14:33;;;;;;;4.68;3.45;;;;;;;22.94;100.00;102084.38;10460006;28;20044;-70
2023/06/23 09:19:33;;;;;;;3.78;2.85;;;;;;;23.28;100.00;102100.03;10458235;28;20412;-71
2023/06/23 09:24:41;;;;;;;6.00;2.75;;;;;;;23.48;100.00;102098.81;10457341;28;20055;-73
2023/06/23 09:29:41;;;;;;;4.60;2.47;;;;;;;23.54;100.00;102105.13;10444199;28;20045;-69
2023/06/23 09:34:42;;;;;;;5.38;3.15;;;;;;;23.50;100.00;102092.84;10453690;28;20029;-72
2023/06/23 09:39:45;;;;;;;4.47;2.83;;;;;;;23.56;100.00;102105.66;10454221;28;20040;-71
2023/06/23 09:44:46;;;;;;;8.77;3.10;;;;;;;23.54;100.00;102091.06;10458394;28;20029;-71
2023/06/23 09:49:49;;;;;;;3.33;2.58;;;;;;;23.59;100.00;102087.34;10458781;28;20041;-72
2023/06/23 09:54:50;;;;;;;5.15;2.25;;;;;;;23.61;100.00;102107.53;10455970;28;20037;-71
2023/06/23 09:59:53;;;;;;;4.40;3.00;;;;;;;23.68;100.00;102113.56;10472612;28;20362;-74
2023/06/23 10:05:03;;;;;;;4.78;2.80;;;;;;;23.99;100.00;102112.94;10409974;28;20497;-75
2023/06/23 10:10:07;;;;;;;3.95;2.85;;;;;;;23.98;100.00;102109.28;10439768;28;20041;-73
2023/06/23 10:15:09;;;;;;;4.22;2.28;;;;;;;23.94;100.00;102100.63;10417050;28;20045;-73
2023/06/23 10:20:09;;;;;;;3.30;2.50;;;;;;;23.81;100.00;102107.09;10416521;28;20091;-71
2023/06/23 10:25:10;;;;;;;3.47;2.60;;;;;;;24.02;100.00;102113.13;10416107;28;20109;-73
2023/06/23 10:30:11;;;;;;;4.45;2.58;;;;;;;24.05;100.00;102117.28;10431043;28;20060;-73
2023/06/23 10:35:12;;;;;;;3.30;1.85;;;;;;;24.00;100.00;102097.69;10414708;28;20124;-73
2023/06/23 10:40:18;;;;;;;4.25;2.17;;;;;;;24.52;100.00;102115.91;10414787;28;20038;-73
2023/06/23 10:45:18;;;;;;;5.40;2.55;;;;;;;24.89;100.00;102124.28;10373940;28;20042;-74
2023/06/23 10:50:19;;;;;;;2.92;1.80;;;;;;;24.89;100.00;102119.47;10382991;28;20595;-74
2023/06/23 10:55:39;;;;;;;4.18;2.70;;;;;;;25.08;100.00;102121.25;10340343;28;20042;-74
2023/06/23 11:00:39;;;;;;;3.92;2.85;;;;;;;24.33;100.00;102135.75;10375112;28;20037;-69
2023/06/23 11:05:41;;;;;;;3.60;3.17;;;;;;;24.89;100.00;102121.47;10375245;28;20042;-69
2023/06/23 11:10:49;;;;;;;3.90;2.30;;;;;;;24.84;100.00;102128.03;10386086;28;20121;-71
2023/06/23 11:15:53;;;;;;;5.05;2.22;;;;;;;25.01;100.00;102116.03;10396275;28;20041;-71
2023/06/23 11:20:54;;;;;;;5.07;2.15;;;;;;;25.32;100.00;102127.38;10420175;28;20045;-71
2023/06/23 11:25:55;;;;;;;3.83;2.40;;;;;;;25.52;100.00;102122.28;10437976;28;20040;-73
2023/06/23 11:31:14;;;;;;;4.15;2.72;;;;;;;25.64;97.83;102127.31;10437982;28;20104;-75
2023/06/23 11:36:16;;;;;;;3.25;2.40;;;;;;;25.89;100.00;102131.34;10438815;28;20049;-72
2023/06/23 11:41:30;;;;;;;5.55;3.10;;;;;;;25.93;99.57;102124.75;10422675;28;20033;-75
2023/06/23 11:46:31;;;;;;;3.55;2.67;;;;;;;25.94;100.00;102142.50;10387707;28;20029;-73
2023/06/23 11:51:31;;;;;;;5.93;2.58;;;;;;;26.06;98.57;102134.22;10403982;28;20068;-74
2023/06/23 11:56:32;;;;;;;4.53;3.17;;;;;;;26.03;100.00;102139.72;10436820;28;20041;-77
2023/06/23 12:01:32;;;;;;;3.47;2.00;;;;;;;26.81;99.18;102131.28;10422468;28;20061;-74
2023/06/23 12:06:36;;;;;;;2.67;2.45;;;;;;;27.29;90.37;102116.03;10403933;28;20053;-74
2023/06/23 12:11:37;;;;;;;4.68;2.55;;;;;;;27.32;92.54;102131.47;10453778;28;20048;-74
2023/06/23 12:16:38;;;;;;;5.53;3.63;;;;;;;27.31;94.29;102152.47;10460223;28;20059;-72
2023/06/23 12:21:39;;;;;;;3.75;3.08;;;;;;;27.41;89.02;102143.59;10460907;28;20029;-75
2023/06/23 12:26:41;;;;;;;4.47;3.17;;;;;;;26.94;91.10;102147.19;10460680;28;20049;-73
2023/06/23 12:31:41;;;;;;;5.50;2.90;;;;;;;26.95;90.84;102148.03;10461715;28;20516;-72
2023/06/23 12:36:42;;;;;;;4.70;3.17;;;;;;;27.11;86.82;102139.84;10452385;28;20041;-79
2023/06/23 12:41:43;;;;;;;3.47;3.03;;;;;;;27.72;86.85;102142.44;10458889;28;20140;-79
2023/06/23 12:46:43;;;;;;;6.78;3.65;;;;;;;28.03;83.69;102135.63;10452352;28;20045;-77
2023/06/23 12:51:45;;;;;;;3.88;2.95;;;;;;;28.28;83.41;102126.13;10454741;28;20033;-76
2023/06/23 12:56:46;;;;;;;4.95;3.55;;;;;;;27.70;78.70;102131.47;10459726;28;20033;-74
2023/06/23 13:01:47;;;;;;;4.38;1.83;;;;;;;27.63;71.37;102104.88;10442479;28;20082;-75
2023/06/23 13:06:49;;;;;;;2.83;2.17;;;;;;;28.02;68.37;102111.34;10457909;28;20075;-74
2023/06/23 13:11:50;;;;;;;3.05;2.03;;;;;;;28.14;61.05;102081.09;10459263;28;20063;-77
2023/06/23 13:16:50;;;;;;;5.38;1.83;;;;;;;28.37;64.19;102109.03;10474187;28;20041;-74
2023/06/23 13:21:51;;;;;;;2.78;1.92;;;;;;;28.42;63.78;102111.66;10457541;28;20040;-70
2023/06/23 13:26:52;;;;;;;2.58;1.88;;;;;;;28.58;61.25;102106.22;10459102;28;20061;-72
2023/06/23 13:31:52;;;;;;;3.63;2.00;;;;;;;28.17;60.20;102105.88;10460409;28;20037;-67
2023/06/23 13:36:53;;;;;;;3.72;1.85;;;;;;;28.36;59.69;102104.53;10459399;28;20045;-73
2023/06/23 13:41:53;;;;;;;4.65;2.10;;;;;;;28.74;57.84;102114.91;10430691;28;20573;-72
2023/06/23 13:46:54;;;;;;;3.55;2.28;;;;;;;28.81;60.38;102131.31;10399390;28;20099;-74
2023/06/23 13:51:55;;;;;;;2.40;1.88;;;;;;;28.36;57.85;102128.06;10414377;28;20045;-74
2023/06/23 13:56:56;;;;;;;4.72;2.00;;;;;;;27.78;56.21;102129.75;10417594;28;20041;-75
2023/06/23 14:01:56;;;;;;;2.72;1.95;;;;;;;27.49;58.46;102133.41;10418415;28;20485;-75
2023/06/23 14:06:56;;;;;;;2.42;1.70;;;;;;;27.86;56.48;102123.25;10417502;28;20083;-76
2023/06/23 14:11:57;;;;;;;3.20;1.95;;;;;;;28.24;56.81;102142.13;10415399;28;20041;-75
2023/06/23 14:16:58;;;;;;;2.60;1.60;;;;;;;28.49;55.19;102119.63;10430433;28;20382;-76
2023/06/23 14:21:58;;;;;;;2.40;1.90;;;;;;;28.58;55.50;102140.22;10429940;28;20033;-74
2023/06/23 14:26:59;;;;;;;2.47;1.52;;;;;;;28.30;56.55;102159.72;10416311;28;20567;-74
2023/06/23 14:31:59;;;;;;;3.63;1.80;;;;;;;28.67;56.70;102140.97;10416443;28;20045;-74
2023/06/23 14:37:03;;;;;;;2.80;1.60;;;;;;;29.04;55.96;102138.22;10398913;28;20037;-72
2023/06/23 14:42:03;;;;;;;2.80;1.58;;;;;;;29.49;55.15;102140.22;10416514;28;20037;-75
2023/06/23 14:47:04;;;;;;;3.05;1.75;;;;;;;30.02;54.60;102133.84;10451953;28;20037;-73
2023/06/23 14:52:05;;;;;;;3.20;1.60;;;;;;;29.28;50.38;102128.97;10456631;28;20057;-75
2023/06/23 14:57:06;;;;;;;2.42;1.30;;;;;;;29.00;51.38;102139.28;10446459;28;20037;-73
2023/06/23 15:02:06;;;;;;;3.97;1.40;;;;;;;29.17;49.52;102139.97;10465975;28;20052;-74
2023/06/23 15:07:07;;;;;;;1.88;1.20;;;;;;;28.18;49.74;102143.53;10465382;28;20040;-75
2023/06/23 15:12:07;;;;;;;2.53;1.00;;;;;;;28.11;48.75;102144.06;10405052;28;20100;-75
2023/06/23 15:17:08;;;;;;;2.92;1.23;;;;;;;29.02;47.66;102140.59;10387939;28;20096;-74
2023/06/23 15:22:09;;;;;;;4.70;1.27;;;;;;;28.59;48.38;102153.22;10437961;28;20041;-76
2023/06/23 15:27:09;;;;;;;5.43;1.63;;;;;;;27.86;49.04;102154.38;10422072;28;20038;-74
2023/06/23 15:32:09;;;;;;;2.78;1.50;;;;;;;27.41;51.97;102183.19;10420754;28;20033;-72
2023/06/23 15:37:10;;;;;;;2.80;1.52;;;;;;;28.03;51.16;102175.25;10401571;28;20038;-73
2023/06/23 15:42:10;;;;;;;3.25;1.50;;;;;;;29.38;48.65;102168.22;10401869;28;20033;-76
2023/06/23 15:47:11;;;;;;;3.55;1.58;;;;;;;29.63;47.90;102167.44;10399585;28;20042;-76
2023/06/23 15:52:11;;;;;;;2.38;1.27;;;;;;;28.58;47.61;102174.22;10398494;28;20034;-75
2023/06/23 15:57:12;;;;;;;3.10;1.70;;;;;;;27.98;49.84;102185.59;10400990;28;20030;-73
2023/06/23 16:02:12;;;;;;;2.95;1.60;;;;;;;28.48;45.79;102175.41;10416044;28;20029;-72
2023/06/23 16:07:13;;;;;;;2.45;1.50;;;;;;;29.08;45.82;102181.72;10399926;28;20042;-72
2023/06/23 16:12:13;;;;;;;3.28;1.30;;;;;;;28.80;45.74;102178.69;10401096;28;20414;-76
2023/06/23 16:17:14;;;;;;;1.73;1.13;;;;;;;28.94;47.96;102181.19;10399665;28;20391;-76
2023/06/23 16:22:14;;;;;;;3.33;1.65;;;;;;;29.29;46.09;102181.69;10362667;28;20045;-69
2023/06/23 16:27:15;;;;;;;4.78;1.45;;;;;;;29.23;47.11;102193.59;10381029;28;20053;-73
2023/06/23 16:32:15;;;;;;;2.15;1.52;;;;;;;28.90;48.36;102202.91;10362536;28;20034;-74
2023/06/23 16:37:15;;;;;;;3.03;1.73;;;;;;;27.97;51.47;102219.94;10386474;28;20037;-74
2023/06/23 16:42:16;;;;;;;3.33;1.90;;;;;;;26.59;52.50;102219.84;10400194;28;20034;-74
2023/06/23 16:47:17;;;;;;;2.58;1.80;;;;;;;24.82;53.76;102233.75;10395014;28;20046;-74
2023/06/23 16:52:17;;;;;;;5.72;2.20;;;;;;;23.37;57.93;102244.28;10414034;28;20081;-73
2023/06/23 16:57:18;;;;;;;3.80;1.90;;;;;;;22.83;62.62;102259.75;10426945;28;20044;-72
2023/06/23 17:02:19;;;;;;;3.58;2.15;;;;;;;22.45;65.28;102285.00;10458783;28;20039;-73
2023/06/23 17:07:19;;;;;;;4.40;2.25;;;;;;;22.36;67.51;102273.59;10458181;28;20520;-72
2023/06/23 17:12:20;;;;;;;5.88;1.80;;;;;;;22.43;69.28;102272.41;10440579;28;20067;-73
2023/06/23 17:17:20;;;;;;;4.93;2.38;;;;;;;22.87;70.13;102274.03;10439460;28;20045;-70
2023/06/23 17:22:21;;;;;;;3.95;2.38;;;;;;;22.84;72.20;102271.81;10456532;28;20051;-72
2023/06/23 17:27:21;;;;;;;4.45;2.08;;;;;;;22.77;73.09;102287.06;10457623;28;20068;-72
2023/06/23 17:32:22;;;;;;;4.35;2.58;;;;;;;22.40;74.84;102293.47;10459010;28;20025;-72
2023/06/23 17:37:22;;;;;;;3.38;2.22;;;;;;;22.03;78.13;102297.81;10473111;28;20033;-72
2023/06/23 17:42:23;;;;;;;5.18;2.55;;;;;;;21.64;81.86;102309.16;10457820;28;20036;-72
2023/06/23 17:47:24;;;;;;;4.60;2.70;;;;;;;21.25;81.38;102296.00;10442477;28;20412;-71
2023/06/23 17:52:25;;;;;;;5.07;2.50;;;;;;;21.04;84.46;102307.38;10456961;28;20064;-72
2023/06/23 17:57:25;;;;;;;3.80;2.28;;;;;;;21.05;85.45;102317.47;10443962;28;20033;-73
2023/06/23 18:02:26;;;;;;;4.82;2.63;;;;;;;20.95;86.94;102321.16;10455129;28;20026;-75
2023/06/23 18:07:26;;;;;;;4.32;2.92;;;;;;;20.88;90.28;102325.41;10454319;28;20036;-71
2023/06/23 18:12:27;;;;;;;4.60;3.22;;;;;;;20.65;93.33;102335.31;10455170;28;20045;-71
2023/06/23 18:17:31;;;;;;;3.90;2.67;;;;;;;20.36;97.16;102342.41;10433090;28;20037;-71
2023/06/23 18:22:32;;;;;;;3.78;2.80;;;;;;;20.00;100.00;102343.63;10453412;28;20075;-71
2023/06/23 18:27:32;;;;;;;6.97;3.10;;;;;;;19.75;100.00;102360.13;10433090;28;20041;-71
2023/06/23 18:37:41;;;;;;;4.35;3.15;;;;;;;19.33;100.00;102338.06;10456623;28;20048;-71
2023/06/23 18:42:42;;;;;;;5.97;2.90;;;;;;;19.33;100.00;102354.81;10446720;28;20041;-71
2023/06/23 18:47:43;;;;;;;7.72;3.60;;;;;;;19.39;100.00;102347.25;10443149;28;20483;-70
2023/06/23 18:52:43;;;;;;;5.18;3.38;;;;;;;19.35;100.00;102360.94;10439428;28;20394;-71
2023/06/23 18:57:44;;;;;;;5.80;3.20;;;;;;;19.33;100.00;102354.81;10429781;28;20040;-70
2023/06/23 19:02:44;;;;;;;5.93;3.35;;;;;;;19.07;100.00;102335.22;10473024;28;20041;-70
2023/06/23 19:07:47;;;;;;;7.82;3.65;;;;;;;19.26;100.00;102373.78;10434767;28;20048;-72
2023/06/23 19:12:48;;;;;;;5.10;3.38;;;;;;;19.18;100.00;102365.94;10452988;28;20041;-73
2023/06/23 19:17:48;;;;;;;6.53;3.55;;;;;;;19.19;100.00;102373.22;10405094;28;20080;-73
2023/06/23 19:22:49;;;;;;;7.63;3.63;;;;;;;19.14;100.00;102379.59;10401543;28;20055;-72
2023/06/23 19:27:49;;;;;;;8.60;3.63;;;;;;;19.09;100.00;102380.44;10465821;28;20066;-72
2023/06/23 19:32:50;;;;;;;5.22;4.03;;;;;;;19.01;100.00;102382.94;10434195;28;20457;-72
2023/06/23 19:37:50;;;;;;;7.45;3.60;;;;;;;18.88;100.00;102362.78;10389752;28;21780;-72
2023/06/23 19:42:51;;;;;;;6.72;4.53;;;;;;;18.88;100.00;102385.13;10397326;28;20048;-72
2023/06/23 19:47:52;;;;;;;6.18;3.78;;;;;;;18.65;100.00;102385.56;10392019;28;20405;-73
2023/06/23 19:52:53;;;;;;;8.63;4.43;;;;;;;18.60;100.00;102394.72;10377982;28;20153;-70
2023/06/23 19:57:53;;;;;;;5.82;4.65;;;;;;;18.42;100.00;102387.69;10375661;28;20088;-70
2023/06/23 20:02:54;;;;;;;9.68;4.85;;;;;;;18.48;100.00;102411.69;10377952;28;20052;-70
2023/06/23 20:07:56;;;;;;;6.10;4.00;;;;;;;18.41;100.00;102404.69;10391876;28;20747;-70
2023/06/23 20:12:57;;;;;;;6.90;4.40;;;;;;;18.35;100.00;102406.59;10376198;28;20061;-72
2023/06/23 20:17:58;;;;;;;5.60;4.20;;;;;;;18.24;100.00;102408.47;10376328;28;20041;-70
2023/06/23 20:22:58;;;;;;;7.40;4.22;;;;;;;18.10;100.00;102413.69;10365126;28;20049;-70
2023/06/23 20:28:00;;;;;;;7.80;3.80;;;;;;;18.05;100.00;102412.81;10360243;28;20049;-70
2023/06/23 20:33:01;;;;;;;7.38;4.78;;;;;;;18.02;100.00;102421.69;10361881;28;20044;-70
2023/06/23 20:38:02;;;;;;;5.75;4.30;;;;;;;17.95;100.00;102425.56;10372790;28;20105;-71
2023/06/23 20:43:02;;;;;;;6.07;4.25;;;;;;;17.98;100.00;102426.13;10376412;28;20037;-71
2023/06/23 20:48:03;;;;;;;7.47;4.68;;;;;;;17.98;100.00;102426.13;10455272;28;20075;-71
2023/06/23 20:53:03;;;;;;;6.75;4.53;;;;;;;17.88;100.00;102408.25;10438901;28;20048;-71
2023/06/23 20:58:04;;;;;;;7.50;4.88;;;;;;;17.78;100.00;102401.69;10441629;28;20040;-71
2023/06/23 21:03:04;;;;;;;8.65;5.03;;;;;;;17.86;100.00;102418.81;10455454;28;20052;-71
2023/06/23 21:08:05;;;;;;;9.05;5.05;;;;;;;17.85;100.00;102422.69;10457169;28;20048;-70
2023/06/23 21:13:05;;;;;;;9.60;4.68;;;;;;;17.79;100.00;102417.31;10439057;28;20576;-70
2023/06/23 21:18:06;;;;;;;7.28;5.05;;;;;;;17.66;100.00;102419.44;10456440;28;20041;-70
2023/06/23 21:23:06;;;;;;;7.20;6.15;;;;;;;17.64;100.00;102416.06;10474110;28;20029;-70
2023/06/23 21:28:07;;;;;;;10.93;9.32;;;;;;;17.54;100.00;102415.97;10473787;28;20041;-70
2023/06/23 21:33:09;;;;;;;14.80;11.35;;;;;;;17.49;100.00;102419.56;10454336;28;20444;-70
2023/06/23 21:38:09;;;;;;;11.65;7.70;;;;;;;17.32;100.00;102397.41;10454868;28;20037;-70
2023/06/23 21:43:10;;;;;;;8.60;5.57;;;;;;;17.41;100.00;102413.63;10455883;28;20029;-70
2023/06/23 21:48:11;;;;;;;8.80;5.40;;;;;;;17.37;100.00;102410.53;10422279;28;20037;-70
2023/06/23 21:53:11;;;;;;;8.32;6.22;;;;;;;17.41;100.00;102414.47;10454535;28;20033;-71
2023/06/23 21:58:14;;;;;;;8.38;6.38;;;;;;;17.38;100.00;102417.75;10455216;28;20049;-71
2023/06/23 22:03:14;;;;;;;10.65;7.57;;;;;;;17.21;100.00;102400.34;10455414;28;20064;-70
2023/06/23 22:08:15;;;;;;;13.73;8.93;;;;;;;17.28;100.00;102406.50;10453912;28;20040;-71
2023/06/23 22:13:15;;;;;;;16.05;10.52;;;;;;;17.25;100.00;102412.63;10454036;28;20041;-69
2023/06/23 22:18:16;;;;;;;18.10;11.85;;;;;;;17.14;100.00;102401.38;10455272;28;20033;-70
2023/06/23 22:23:16;;;;;;;16.13;9.60;;;;;;;17.09;100.00;102404.09;10454073;28;20048;-70
2023/06/23 22:28:17;;;;;;;16.00;10.48;;;;;;;17.13;100.00;102421.09;10453826;28;20116;-70
2023/06/23 22:33:17;;;;;;;12.38;8.35;;;;;;;17.02;100.00;102408.19;10452536;28;20043;-70
2023/06/23 22:38:18;;;;;;;10.57;6.72;;;;;;;16.98;100.00;102418.16;10436367;28;20382;-71
2023/06/23 22:43:19;;;;;;;11.05;7.38;;;;;;;16.91;100.00;102418.38;10425548;28;20033;-71
2023/06/23 22:48:19;;;;;;;12.05;7.90;;;;;;;16.85;100.00;102413.84;10455160;28;20056;-70